Time;durP1;ratioP1;P1;durP2;ratioP2;P2;SDS_P1;SDS_P2;PMS_P1;PMS_P2;Temp;Humidity;BMP_temperature;BMP_pressure;BME280_temperature;BME280_humidity;BME280_pressure;Samples;Min_cycle;Max_cycle;Signal;HPM_P1;HPM_P2
2022/03/21 00:01:18;;;;;;;49.27;31.67;;;;;;;4.67;35.20;96235.84;5059868;28;20198;-78
2022/03/21 00:03:44;;;;;;;46.93;33.03;;;;;;;4.72;35.59;96238.88;5020422;28;20233;-78
2022/03/21 00:06:10;;;;;;;48.37;32.90;;;;;;;4.70;35.67;96227.81;5045465;28;21349;-78
2022/03/21 00:08:36;;;;;;;44.67;32.40;;;;;;;4.20;36.63;96232.50;5038393;28;20462;-78
2022/03/21 00:11:02;;;;;;;42.07;31.13;;;;;;;4.47;36.30;96232.97;5047303;28;20410;-78
2022/03/21 00:13:28;;;;;;;47.37;33.20;;;;;;;4.75;36.32;96232.66;5055095;28;20178;-79
2022/03/21 00:15:54;;;;;;;51.00;34.57;;;;;;;3.77;37.52;96233.09;5048737;28;20572;-78
2022/03/21 00:18:21;;;;;;;46.87;32.77;;;;;;;4.16;36.62;96228.47;5048690;28;20417;-78
2022/03/21 00:20:49;;;;;;;49.20;33.60;;;;;;;4.78;36.05;96233.25;5062680;28;20433;-78
2022/03/21 00:23:16;;;;;;;40.77;30.43;;;;;;;4.91;35.58;96227.91;5040019;28;20765;-78
2022/03/21 00:25:41;;;;;;;46.03;31.60;;;;;;;4.61;35.44;96229.34;5061218;28;20561;-78
2022/03/21 00:28:08;;;;;;;46.03;32.07;;;;;;;4.45;36.27;96226.28;5055065;28;20421;-78
2022/03/21 00:30:36;;;;;;;43.63;29.00;;;;;;;4.97;35.67;96227.44;5056663;28;20642;-79
2022/03/21 00:33:02;;;;;;;51.23;32.83;;;;;;;4.77;35.86;96223.78;5058218;28;20421;-78
2022/03/21 00:35:28;;;;;;;48.47;31.90;;;;;;;4.54;36.56;96222.16;5063972;28;20461;-78
2022/03/21 00:37:54;;;;;;;43.67;30.90;;;;;;;4.98;35.99;96223.88;5059442;28;20174;-77
2022/03/21 00:40:20;;;;;;;51.90;29.70;;;;;;;4.61;36.89;96218.13;5062641;28;20453;-77
2022/03/21 00:42:47;;;;;;;38.50;26.47;;;;;;;4.56;36.99;96215.91;5052410;28;20488;-77
2022/03/21 00:45:18;;;;;;;37.70;26.27;;;;;;;5.25;35.43;96210.53;5063768;28;20182;-77
2022/03/21 00:47:45;;;;;;;31.60;23.40;;;;;;;4.17;37.15;96214.56;5067162;28;20416;-77
2022/03/21 00:50:14;;;;;;;34.60;21.50;;;;;;;4.57;36.18;96206.34;5062569;28;20424;-78
2022/03/21 00:52:46;;;;;;;29.10;20.30;;;;;;;4.71;35.56;96206.13;5060480;28;20496;-78
2022/03/21 00:55:13;;;;;;;24.80;17.20;;;;;;;4.48;36.02;96200.94;5059736;28;20417;-78
2022/03/21 00:57:40;;;;;;;25.07;19.57;;;;;;;4.67;35.97;96194.34;5063525;28;20420;-78
2022/03/21 01:00:10;;;;;;;21.40;16.90;;;;;;;4.73;35.08;96198.22;5052571;28;20451;-79
2022/03/21 01:02:36;;;;;;;24.40;16.70;;;;;;;4.49;36.09;96202.56;5058677;28;20416;-78
2022/03/21 01:05:03;;;;;;;20.10;15.83;;;;;;;4.37;36.13;96192.34;5045099;28;20432;-78
2022/03/21 01:07:28;;;;;;;19.00;15.13;;;;;;;4.36;35.99;96201.06;5057722;28;20927;-78
2022/03/21 01:09:54;;;;;;;24.63;16.13;;;;;;;4.66;34.74;96193.50;5045887;28;20426;-78
2022/03/21 01:12:20;;;;;;;20.90;13.70;;;;;;;4.87;34.84;96195.38;5058000;28;20228;-78
2022/03/21 01:14:45;;;;;;;19.13;13.30;;;;;;;4.73;34.76;96180.91;5057500;28;20203;-78
2022/03/21 01:17:10;;;;;;;19.33;13.70;;;;;;;4.29;35.66;96179.97;5060004;28;20211;-78
2022/03/21 01:19:36;;;;;;;18.47;15.10;;;;;;;4.11;35.53;96182.19;5065981;28;20199;-77
2022/03/21 01:22:02;;;;;;;19.27;16.23;;;;;;;4.18;35.87;96182.56;5055504;28;20187;-77
2022/03/21 01:24:28;;;;;;;19.45;14.05;;;;;;;3.94;35.90;96178.28;5065996;28;20210;-78
2022/03/21 01:26:54;;;;;;;15.83;12.77;;;;;;;4.49;34.96;96168.88;5038982;28;20175;-77
2022/03/21 01:29:20;;;;;;;16.40;14.50;;;;;;;4.28;34.93;96168.75;5035665;28;20682;-78
2022/03/21 01:31:45;;;;;;;18.40;14.47;;;;;;;4.14;35.18;96175.97;5053705;28;20257;-78
2022/03/21 01:34:10;;;;;;;22.97;14.27;;;;;;;4.17;35.26;96167.94;5051079;28;20194;-78
2022/03/21 01:36:36;;;;;;;19.83;14.90;;;;;;;4.26;35.09;96167.25;5061959;28;20195;-78
2022/03/21 01:39:01;;;;;;;14.93;13.17;;;;;;;4.10;36.25;96159.81;5066023;28;20182;-78
2022/03/21 01:41:27;;;;;;;14.67;13.03;;;;;;;4.13;35.95;96163.94;5052589;28;20183;-78
2022/03/21 01:44:05;;;;;;;15.50;12.77;;;;;;;4.29;35.61;96164.44;5052435;28;20197;-78
2022/03/21 01:46:31;;;;;;;19.63;14.40;;;;;;;4.24;35.95;96158.75;5051879;28;20238;-79
2022/03/21 01:48:57;;;;;;;18.27;13.13;;;;;;;4.65;35.05;96155.56;5057740;28;20436;-77
2022/03/21 01:51:27;;;;;;;23.70;15.87;;;;;;;4.17;36.03;96157.56;5051908;28;20473;-78
2022/03/21 01:56:44;;;;;;;20.55;16.38;;;;;;;4.13;36.82;96158.75;5061196;28;20460;-77
2022/03/21 01:59:10;;;;;;;30.83;16.67;;;;;;;3.89;36.73;96163.09;5059046;28;20174;-77
2022/03/21 02:01:37;;;;;;;25.27;15.50;;;;;;;4.38;36.49;96160.28;5063596;28;20884;-78
2022/03/21 02:04:03;;;;;;;25.17;17.90;;;;;;;3.59;37.18;96160.19;5040429;28;20441;-79
2022/03/21 02:06:29;;;;;;;27.60;19.07;;;;;;;4.04;37.29;96163.69;5064755;28;20425;-77
2022/03/21 02:08:57;;;;;;;26.77;19.10;;;;;;;4.50;36.58;96159.34;5057358;28;20754;-77
2022/03/21 02:11:23;;;;;;;31.60;19.17;;;;;;;4.22;36.33;96160.66;5051965;28;20418;-78
2022/03/21 02:13:49;;;;;;;23.83;19.27;;;;;;;4.16;36.82;96155.94;5028631;28;20489;-78
2022/03/21 02:16:15;;;;;;;25.80;19.03;;;;;;;4.13;36.55;96158.75;5062594;28;20492;-78
2022/03/21 02:18:43;;;;;;;27.10;18.73;;;;;;;4.19;36.98;96160.88;5048174;28;20941;-78
2022/03/21 02:21:26;;;;;;;28.93;20.30;;;;;;;4.21;36.74;96159.84;5048706;28;20175;-77
2022/03/21 02:23:54;;;;;;;29.63;19.63;;;;;;;4.18;36.63;96161.84;5042086;28;20426;-78
2022/03/21 02:26:21;;;;;;;31.77;19.87;;;;;;;4.40;36.33;96167.03;5048165;28;20410;-78
2022/03/21 02:28:48;;;;;;;30.87;21.03;;;;;;;4.37;36.44;96167.25;5046379;28;20449;-78
2022/03/21 02:31:15;;;;;;;29.97;21.00;;;;;;;4.28;36.64;96166.19;5046966;28;20402;-78
2022/03/21 02:33:41;;;;;;;30.90;21.63;;;;;;;4.63;35.93;96156.63;5055305;28;20433;-78
2022/03/21 02:36:08;;;;;;;27.03;20.13;;;;;;;4.28;36.51;96155.00;5053628;28;20468;-78
2022/03/21 02:38:35;;;;;;;31.90;20.53;;;;;;;4.22;36.54;96168.44;5054833;28;20183;-78
2022/03/21 02:41:02;;;;;;;29.63;20.50;;;;;;;4.21;36.75;96167.59;5067599;28;20420;-78
2022/03/21 02:43:27;;;;;;;38.20;25.00;;;;;;;4.09;38.04;96179.69;5052283;28;20429;-78
2022/03/21 02:46:05;;;;;;;40.37;26.80;;;;;;;3.53;39.08;96179.59;5055082;28;20483;-78
2022/03/21 02:48:31;;;;;;;40.23;24.67;;;;;;;3.82;38.45;96176.63;5029278;28;20187;-78
2022/03/21 02:51:02;;;;;;;38.93;25.30;;;;;;;3.40;39.55;96179.66;5054308;28;20441;-77
2022/03/21 02:53:30;;;;;;;31.73;24.10;;;;;;;3.82;37.79;96185.19;5052108;28;20190;-78
2022/03/21 02:55:57;;;;;;;33.23;24.70;;;;;;;3.55;38.43;96179.47;5066911;28;20445;-77
2022/03/21 02:58:23;;;;;;;39.30;27.00;;;;;;;3.40;39.08;96181.44;5036885;28;20519;-77
2022/03/21 03:00:49;;;;;;;34.90;25.67;;;;;;;3.55;38.15;96185.47;5054368;28;20434;-78
2022/03/21 03:03:14;;;;;;;39.13;25.57;;;;;;;3.57;38.35;96178.44;5051383;28;20451;-78
2022/03/21 03:05:40;;;;;;;38.53;26.13;;;;;;;3.17;38.90;96177.88;5066913;28;20174;-78
2022/03/21 03:08:05;;;;;;;42.73;27.40;;;;;;;3.26;38.84;96180.66;5052372;28;20181;-78
2022/03/21 03:10:31;;;;;;;35.20;23.53;;;;;;;3.40;38.78;96191.78;5049210;28;20237;-78
2022/03/21 03:12:57;;;;;;;35.20;25.10;;;;;;;3.35;38.24;96180.94;5052197;28;20211;-77
2022/03/21 03:15:22;;;;;;;37.97;24.47;;;;;;;3.30;38.86;96179.50;5054409;28;20203;-78
2022/03/21 03:17:47;;;;;;;34.30;23.10;;;;;;;3.39;38.12;96177.19;5053335;28;20205;-78
2022/03/21 03:20:15;;;;;;;30.80;22.10;;;;;;;2.96;38.76;96182.84;5060274;28;20178;-78
2022/03/21 03:22:41;;;;;;;36.33;23.87;;;;;;;3.31;38.51;96178.56;5047317;28;20175;-77
2022/03/21 03:25:07;;;;;;;34.37;24.77;;;;;;;3.18;39.06;96177.78;5042371;28;20422;-78
2022/03/21 03:27:32;;;;;;;34.07;24.60;;;;;;;3.22;38.98;96186.97;5047752;28;20270;-78
2022/03/21 03:29:59;;;;;;;37.33;24.23;;;;;;;3.06;39.05;96184.66;5046350;28;20453;-78
2022/03/21 03:32:25;;;;;;;37.10;21.47;;;;;;;3.10;39.49;96182.69;5027960;28;20185;-77
2022/03/21 03:34:51;;;;;;;32.47;22.30;;;;;;;3.15;39.02;96179.75;5064400;28;20508;-78
2022/03/21 03:37:17;;;;;;;38.90;24.17;;;;;;;3.04;39.79;96175.38;5057840;28;20449;-77
2022/03/21 03:39:43;;;;;;;27.90;20.27;;;;;;;2.90;39.33;96177.19;5047785;28;20425;-77
2022/03/21 03:42:09;;;;;;;32.95;18.08;;;;;;;3.31;38.79;96169.97;5058404;28;20289;-78
2022/03/21 03:44:34;;;;;;;25.90;18.77;;;;;;;2.40;41.27;96171.19;5028949;28;20171;-78
2022/03/21 03:47:00;;;;;;;29.50;21.83;;;;;;;2.87;40.10;96169.66;5066270;28;20235;-77
2022/03/21 03:49:26;;;;;;;28.73;21.10;;;;;;;1.90;41.79;96176.31;5058589;28;20201;-78
2022/03/21 03:51:52;;;;;;;35.63;20.10;;;;;;;2.79;40.73;96177.13;5046318;28;20454;-77
2022/03/21 03:54:17;;;;;;;28.80;19.30;;;;;;;2.69;39.96;96170.94;5058340;28;20421;-77
2022/03/21 03:56:42;;;;;;;31.60;19.27;;;;;;;3.11;39.07;96173.97;5048598;28;20207;-78
2022/03/21 03:59:08;;;;;;;25.73;18.20;;;;;;;3.49;37.65;96175.56;5046681;28;20217;-78
2022/03/21 04:01:33;;;;;;;22.60;16.30;;;;;;;3.05;37.81;96175.25;5054110;28;20205;-78
2022/03/21 04:04:00;;;;;;;27.07;19.10;;;;;;;3.12;37.96;96170.47;5054340;28;20178;-78
2022/03/21 04:06:27;;;;;;;29.23;17.33;;;;;;;3.55;37.07;96174.28;5045818;28;20230;-78
2022/03/21 04:08:52;;;;;;;21.10;15.32;;;;;;;3.35;37.00;96168.00;5054834;28;20662;-78
2022/03/21 04:11:18;;;;;;;19.07;14.13;;;;;;;3.13;36.85;96162.63;5063816;28;20169;-78
2022/03/21 04:13:46;;;;;;;21.73;13.75;;;;;;;3.15;35.92;96152.16;5052295;28;20212;-78
2022/03/21 04:16:12;;;;;;;14.15;10.40;;;;;;;3.48;35.70;96153.22;5057628;28;20202;-78
2022/03/21 04:18:38;;;;;;;22.90;16.90;;;;;;;3.37;36.07;96158.34;5052145;28;20189;-78
2022/03/21 04:21:04;;;;;;;23.07;15.90;;;;;;;3.45;37.29;96154.28;5065903;28;20409;-77
2022/03/21 04:23:30;;;;;;;27.48;18.80;;;;;;;3.17;38.23;96150.28;5045874;28;20183;-78
2022/03/21 04:25:55;;;;;;;28.63;18.43;;;;;;;3.39;38.07;96149.53;5052196;28;20174;-78
2022/03/21 04:28:21;;;;;;;27.13;17.80;;;;;;;3.28;38.46;96144.31;5053392;28;20180;-78
2022/03/21 04:30:46;;;;;;;23.07;18.77;;;;;;;3.51;38.05;96146.06;5057770;28;20179;-78
2022/03/21 04:33:12;;;;;;;25.63;18.17;;;;;;;3.36;38.01;96146.34;5061265;28;20186;-78
2022/03/21 04:35:39;;;;;;;26.73;18.50;;;;;;;3.50;37.32;96148.75;5060551;28;20191;-77
2022/03/21 04:38:13;;;;;;;21.23;15.47;;;;;;;3.57;36.74;96152.53;5044322;28;20217;-77
2022/03/21 04:40:40;;;;;;;24.50;16.33;;;;;;;3.76;36.13;96156.38;5056350;28;20429;-77
2022/03/21 04:43:06;;;;;;;18.30;13.90;;;;;;;3.78;34.76;96160.47;5053608;28;20429;-77
2022/03/21 04:45:32;;;;;;;19.93;13.10;;;;;;;3.76;34.20;96149.41;5063960;28;21272;-77
2022/03/21 04:47:58;;;;;;;18.93;12.33;;;;;;;4.35;33.62;96147.59;5045014;28;20417;-78
2022/03/21 04:50:24;;;;;;;14.50;10.67;;;;;;;4.54;32.40;96146.97;5033820;28;20179;-77
2022/03/21 04:52:49;;;;;;;12.80;10.20;;;;;;;4.55;32.57;96146.84;5038237;28;20466;-77
2022/03/21 04:55:15;;;;;;;16.07;11.07;;;;;;;4.52;32.73;96148.88;5032617;28;20632;-77
2022/03/21 04:57:41;;;;;;;18.27;10.57;;;;;;;4.48;32.54;96143.91;5032506;28;20184;-77
2022/03/21 05:00:07;;;;;;;13.00;9.73;;;;;;;4.64;32.01;96150.50;5037315;28;20283;-77
2022/03/21 05:02:32;;;;;;;17.23;11.90;;;;;;;4.97;31.65;96153.97;5034719;28;20411;-77
2022/03/21 05:04:58;;;;;;;16.37;12.47;;;;;;;4.72;32.28;96157.66;5035952;28;20481;-78
2022/03/21 05:07:25;;;;;;;15.90;11.97;;;;;;;4.72;32.16;96149.91;5039139;28;20175;-77
2022/03/21 05:09:51;;;;;;;13.23;11.87;;;;;;;4.96;31.80;96154.91;5032725;28;20614;-78
2022/03/21 05:12:16;;;;;;;19.00;10.87;;;;;;;4.71;31.77;96153.44;5035225;28;20411;-78
2022/03/21 05:14:42;;;;;;;15.87;10.13;;;;;;;4.93;31.74;96165.53;5036336;28;20183;-78
2022/03/21 05:17:10;;;;;;;13.10;10.90;;;;;;;4.93;31.16;96161.16;5033629;28;20196;-78
2022/03/21 05:19:36;;;;;;;13.90;11.20;;;;;;;5.21;31.56;96167.56;5045099;28;20423;-78
2022/03/21 05:22:06;;;;;;;18.57;10.97;;;;;;;5.10;31.82;96159.81;5038990;28;20557;-78
2022/03/21 05:32:47;;;;;;;7.63;5.10;;;;;;;5.05;31.22;96167.16;5028479;28;21298;-78
2022/03/21 05:37:56;;;;;;;10.70;8.50;;;;;;;4.56;32.29;96176.19;5034405;28;20251;-78
2022/03/21 05:40:35;;;;;;;11.20;9.57;;;;;;;4.60;32.56;96177.59;5020956;28;20422;-79
2022/03/21 05:43:02;;;;;;;13.40;9.17;;;;;;;5.06;32.36;96174.81;5034807;28;20179;-78
2022/03/21 05:45:28;;;;;;;11.33;8.47;;;;;;;5.20;31.76;96172.91;5028461;28;20455;-78
2022/03/21 05:50:39;;;;;;;12.73;8.63;;;;;;;5.72;31.29;96175.63;5037872;28;20680;-77
2022/03/21 05:53:06;;;;;;;14.37;9.57;;;;;;;5.78;31.31;96170.75;5034603;28;20473;-78
2022/03/21 05:55:32;;;;;;;15.57;9.60;;;;;;;5.73;31.16;96169.47;5038914;28;20485;-78
2022/03/21 05:57:58;;;;;;;11.40;10.30;;;;;;;5.67;31.17;96169.06;5030008;28;20439;-77
2022/03/21 06:00:25;;;;;;;16.00;8.40;;;;;;;5.57;31.30;96175.94;5040798;28;20482;-78
2022/03/21 06:02:51;;;;;;;6.20;4.93;;;;;;;5.37;31.53;96171.53;5007622;28;20439;-78
2022/03/21 06:05:18;;;;;;;11.17;8.03;;;;;;;5.25;31.52;96173.34;5043027;28;20402;-78
2022/03/21 06:07:45;;;;;;;6.10;3.83;;;;;;;5.34;31.65;96179.56;5035085;28;20433;-78
2022/03/21 06:10:12;;;;;;;10.30;7.10;;;;;;;5.43;31.56;96178.84;5047578;28;20440;-78
2022/03/21 06:12:38;;;;;;;10.27;9.23;;;;;;;4.89;31.90;96180.50;5047387;28;20437;-78
2022/03/21 06:15:04;;;;;;;12.37;8.90;;;;;;;5.16;31.79;96180.09;5020622;28;20512;-79
2022/03/21 06:17:39;;;;;;;4.77;4.00;;;;;;;5.70;31.00;96177.53;5032355;28;20419;-78
2022/03/21 06:20:12;;;;;;;13.00;8.77;;;;;;;6.18;30.72;96185.66;4990936;28;20507;-78
2022/03/21 06:22:38;;;;;;;11.57;7.50;;;;;;;6.14;30.46;96181.66;5022373;28;20450;-78
2022/03/21 06:25:05;;;;;;;9.10;8.23;;;;;;;5.56;31.36;96182.09;5041362;28;20523;-78
2022/03/21 06:27:31;;;;;;;12.43;9.20;;;;;;;5.58;31.25;96185.38;5019988;28;20877;-78
2022/03/21 06:29:56;;;;;;;12.43;9.23;;;;;;;6.10;30.36;96187.25;5016629;28;20431;-78
2022/03/21 06:32:23;;;;;;;10.13;8.67;;;;;;;5.52;30.71;96185.88;5038450;28;20415;-78
2022/03/21 06:34:49;;;;;;;9.97;7.60;;;;;;;5.58;30.92;96185.38;5041018;28;20194;-79
2022/03/21 06:37:14;;;;;;;10.83;9.70;;;;;;;5.84;30.85;96185.00;5010263;28;20455;-78
2022/03/21 06:39:40;;;;;;;9.93;8.90;;;;;;;6.39;30.22;96179.59;5042327;28;20242;-78
2022/03/21 06:42:06;;;;;;;10.80;9.17;;;;;;;6.79;29.57;96179.63;5040297;28;20187;-79
2022/03/21 06:44:32;;;;;;;10.03;9.03;;;;;;;6.45;30.15;96179.91;5027433;28;20194;-79
2022/03/21 06:46:58;;;;;;;10.33;8.87;;;;;;;6.53;29.74;96181.88;5011815;28;20423;-79
2022/03/21 06:49:29;;;;;;;14.33;9.33;;;;;;;7.00;29.01;96176.09;5047680;28;20171;-78
2022/03/21 06:52:03;;;;;;;10.33;9.20;;;;;;;7.32;28.91;96173.31;5055984;28;20468;-79
2022/03/21 06:54:31;;;;;;;6.20;5.60;;;;;;;6.49;29.75;96174.44;5066215;28;20436;-78
2022/03/21 06:56:56;;;;;;;10.63;9.13;;;;;;;6.60;29.29;96179.53;5050376;28;20464;-78
2022/03/21 06:59:23;;;;;;;11.80;9.07;;;;;;;6.60;29.95;96183.00;5055282;28;20520;-79
2022/03/21 07:01:49;;;;;;;10.43;8.80;;;;;;;7.12;28.95;96177.66;5054391;28;20183;-79
2022/03/21 07:04:15;;;;;;;15.77;9.43;;;;;;;7.02;29.33;96184.63;5049252;28;20496;-78
2022/03/21 07:06:40;;;;;;;8.23;5.83;;;;;;;6.38;29.75;96183.97;5057542;28;20448;-78
2022/03/21 07:09:06;;;;;;;12.13;6.60;;;;;;;5.88;30.57;96183.81;5057568;28;20194;-78
2022/03/21 07:11:34;;;;;;;13.50;10.00;;;;;;;6.66;29.71;96181.66;5056466;28;20725;-78
2022/03/21 07:14:00;;;;;;;51.93;11.87;;;;;;;7.22;29.82;96173.25;5057482;28;20239;-78
2022/03/21 07:16:26;;;;;;;18.40;10.70;;;;;;;7.60;29.42;96165.59;5053119;28;20449;-78
2022/03/21 07:18:51;;;;;;;12.73;9.77;;;;;;;7.72;28.01;96171.50;5066721;28;20421;-79
2022/03/21 07:21:17;;;;;;;13.20;9.13;;;;;;;7.78;27.80;96163.16;5063240;28;20217;-79
2022/03/21 07:23:43;;;;;;;16.53;10.37;;;;;;;7.75;28.62;96159.00;5066681;28;20167;-79
2022/03/21 07:26:08;;;;;;;15.07;9.87;;;;;;;7.92;28.46;96164.50;5054368;28;20163;-78
2022/03/21 07:28:34;;;;;;;12.87;9.80;;;;;;;7.76;28.22;96154.66;5055960;28;20501;-79
2022/03/21 07:30:59;;;;;;;13.70;10.23;;;;;;;7.87;27.89;96162.28;5052135;28;20175;-79
2022/03/21 07:33:25;;;;;;;17.30;10.03;;;;;;;8.14;27.68;96168.56;5060511;28;20614;-78
2022/03/21 07:35:51;;;;;;;12.87;9.87;;;;;;;8.03;27.53;96164.31;5055562;28;20220;-79
2022/03/21 07:38:19;;;;;;;16.00;11.40;;;;;;;8.27;27.44;96158.66;5060248;28;20180;-78
2022/03/21 07:40:46;;;;;;;10.87;8.10;;;;;;;8.06;28.10;96163.22;5055839;28;20417;-78
2022/03/21 07:43:12;;;;;;;25.30;10.77;;;;;;;7.82;28.66;96143.66;5058065;28;20432;-78
2022/03/21 07:48:23;;;;;;;12.70;10.00;;;;;;;7.41;28.56;96150.81;5055388;28;20441;-79
2022/03/21 07:50:49;;;;;;;12.50;9.80;;;;;;;8.16;28.15;96151.00;5053952;28;20498;-78
2022/03/21 07:53:14;;;;;;;12.33;11.10;;;;;;;7.76;28.24;96145.03;5045600;28;20434;-79
2022/03/21 07:55:40;;;;;;;14.70;11.03;;;;;;;7.81;28.45;96148.03;5055006;28;20202;-79
2022/03/21 07:58:06;;;;;;;10.80;9.07;;;;;;;8.34;28.01;96138.03;5053322;28;20209;-79
2022/03/21 08:00:32;;;;;;;13.67;11.00;;;;;;;7.91;29.08;96139.38;5055206;28;20265;-78
2022/03/21 08:02:58;;;;;;;11.43;10.20;;;;;;;8.24;27.78;96132.84;5055341;28;20449;-81
2022/03/21 08:05:24;;;;;;;10.53;9.07;;;;;;;8.33;27.67;96132.00;5055757;28;20630;-79
2022/03/21 08:07:51;;;;;;;14.53;7.67;;;;;;;8.65;27.95;96130.78;5051656;28;20453;-78
2022/03/21 08:10:18;;;;;;;11.80;10.60;;;;;;;8.44;27.82;96122.34;5046833;28;20425;-80
2022/03/21 08:12:46;;;;;;;12.77;10.63;;;;;;;8.30;27.58;96127.06;5051702;28;20429;-78
2022/03/21 08:15:12;;;;;;;13.90;10.77;;;;;;;8.79;27.92;96125.06;5059104;28;20436;-79
2022/03/21 08:17:59;;;;;;;17.00;11.97;;;;;;;9.34;26.79;96118.91;5059824;28;20422;-79
2022/03/21 08:20:33;;;;;;;13.20;11.20;;;;;;;9.38;26.38;96120.25;5061375;28;20427;-79
2022/03/21 08:23:06;;;;;;;14.00;11.27;;;;;;;9.91;26.22;96117.72;5047546;28;20952;-79
2022/03/21 08:25:33;;;;;;;14.40;10.77;;;;;;;9.65;26.89;96120.31;5056502;28;20447;-79
2022/03/21 08:27:58;;;;;;;16.10;11.20;;;;;;;9.31;27.25;96132.28;5053339;28;20433;-79
2022/03/21 08:30:24;;;;;;;16.07;12.60;;;;;;;9.51;26.88;96122.50;5050905;28;20461;-78
2022/03/21 08:32:50;;;;;;;15.53;11.67;;;;;;;8.97;27.49;96135.56;5040878;28;20239;-79
2022/03/21 08:35:18;;;;;;;12.17;9.40;;;;;;;9.12;26.71;96128.00;5048129;28;20170;-79
2022/03/21 08:37:43;;;;;;;16.97;11.77;;;;;;;9.16;27.49;96112.88;5048796;28;20221;-79
2022/03/21 08:40:10;;;;;;;13.10;11.13;;;;;;;9.61;27.43;96124.22;5056809;28;20935;-78
2022/03/21 08:42:36;;;;;;;14.53;11.67;;;;;;;9.27;27.57;96114.44;5053931;28;20170;-79
2022/03/21 08:45:03;;;;;;;10.60;9.47;;;;;;;9.26;27.60;96118.00;5053946;28;20452;-78
2022/03/21 08:47:29;;;;;;;17.00;12.27;;;;;;;8.28;28.66;96123.75;5052334;28;20417;-78
2022/03/21 08:49:55;;;;;;;16.97;12.37;;;;;;;8.79;28.20;96112.00;5057333;28;20474;-79
2022/03/21 08:52:20;;;;;;;17.97;13.17;;;;;;;9.55;27.21;96109.97;5056396;28;20477;-79
2022/03/21 08:54:46;;;;;;;17.27;12.70;;;;;;;9.76;26.94;96104.38;5053180;28;20187;-79
2022/03/21 08:57:11;;;;;;;14.60;11.33;;;;;;;10.84;25.54;96098.75;5056972;28;20228;-79
2022/03/21 08:59:37;;;;;;;13.30;9.23;;;;;;;10.29;26.08;96105.19;5054443;28;20185;-79
2022/03/21 09:02:04;;;;;;;14.80;9.93;;;;;;;9.82;25.92;96100.34;5052217;28;20718;-79
2022/03/21 09:04:29;;;;;;;10.47;7.00;;;;;;;10.11;26.04;96097.41;5055383;28;20191;-79
2022/03/21 09:06:55;;;;;;;12.80;10.27;;;;;;;10.07;25.93;96109.16;5052018;28;20426;-79
2022/03/21 09:09:21;;;;;;;12.23;8.97;;;;;;;9.15;27.00;96112.06;5064434;28;20190;-79
2022/03/21 09:11:47;;;;;;;11.97;9.43;;;;;;;9.29;26.81;96105.47;5058754;28;20171;-80
2022/03/21 09:14:13;;;;;;;12.40;8.80;;;;;;;9.18;26.52;96096.09;5054715;28;20300;-79
2022/03/21 09:16:39;;;;;;;13.03;9.90;;;;;;;9.51;26.17;96109.44;5067960;28;20643;-79
2022/03/21 09:19:05;;;;;;;8.33;7.00;;;;;;;9.55;26.88;96113.38;5056882;28;20434;-79
2022/03/21 09:21:31;;;;;;;8.17;7.33;;;;;;;9.42;27.06;96120.78;5052810;28;20421;-79
2022/03/21 09:23:57;;;;;;;11.33;8.53;;;;;;;9.97;26.51;96117.94;5064267;28;20490;-79
2022/03/21 09:26:22;;;;;;;14.70;9.67;;;;;;;9.50;27.04;96107.78;5059575;28;20176;-79
2022/03/21 09:28:49;;;;;;;14.70;9.03;;;;;;;10.09;26.08;96110.66;5053844;28;20428;-79
2022/03/21 09:31:16;;;;;;;11.67;9.10;;;;;;;10.75;25.05;96101.31;5055565;28;20237;-79
2022/03/21 09:33:42;;;;;;;15.10;9.07;;;;;;;10.42;24.99;96105.63;5057081;28;20445;-79
2022/03/21 09:36:09;;;;;;;11.70;9.70;;;;;;;11.32;24.22;96107.66;5060098;28;20452;-79
2022/03/21 09:38:36;;;;;;;28.00;11.00;;;;;;;10.97;24.17;96088.63;5055643;28;20436;-79
2022/03/21 09:41:03;;;;;;;10.57;9.10;;;;;;;12.28;22.92;96085.97;5045170;28;20435;-79
2022/03/21 09:43:30;;;;;;;10.53;8.03;;;;;;;11.62;23.52;96092.28;5055231;28;20433;-79
2022/03/21 09:45:57;;;;;;;11.33;8.90;;;;;;;10.89;24.56;96094.66;5059158;28;20563;-79
2022/03/21 09:48:26;;;;;;;13.37;9.17;;;;;;;11.10;23.94;96094.22;5047637;28;20441;-79
2022/03/21 09:50:52;;;;;;;11.63;9.50;;;;;;;10.89;24.77;96091.22;5049926;28;20918;-78
2022/03/21 09:53:19;;;;;;;13.30;10.67;;;;;;;11.45;24.38;96087.03;5054804;28;20936;-79
2022/03/21 09:55:45;;;;;;;10.30;7.80;;;;;;;11.26;24.11;96089.97;5057159;28;20552;-79
2022/03/21 09:58:11;;;;;;;14.70;10.93;;;;;;;11.45;24.76;96092.28;5055440;28;20428;-79
2022/03/21 10:00:39;;;;;;;12.93;9.90;;;;;;;11.82;23.74;96083.09;5053191;28;20445;-78
2022/03/21 10:03:04;;;;;;;16.93;11.07;;;;;;;11.71;24.71;96086.88;5064995;28;20907;-79
2022/03/21 10:05:43;;;;;;;14.37;9.90;;;;;;;10.95;25.12;96095.81;5055301;28;20418;-79
2022/03/21 10:08:14;;;;;;;11.70;9.80;;;;;;;11.01;25.37;96087.31;5048386;28;20205;-78
2022/03/21 10:10:50;;;;;;;12.30;9.30;;;;;;;11.19;24.30;96086.34;5057027;28;20437;-79
2022/03/21 10:13:17;;;;;;;9.53;8.60;;;;;;;11.08;24.71;96074.41;5051261;28;20442;-79
2022/03/21 10:15:42;;;;;;;15.50;8.93;;;;;;;10.77;25.53;96077.59;5060566;28;20883;-79
2022/03/21 10:18:09;;;;;;;11.60;10.40;;;;;;;10.60;25.55;96079.34;5055846;28;20461;-79
2022/03/21 10:20:36;;;;;;;14.03;10.77;;;;;;;11.48;24.88;96081.47;5051107;28;20186;-79
2022/03/21 10:23:20;;;;;;;17.70;12.57;;;;;;;11.06;25.17;96071.09;5056429;28;20489;-79
2022/03/21 10:25:47;;;;;;;12.87;10.50;;;;;;;11.19;24.77;96068.00;5049249;28;20434;-79
2022/03/21 10:28:40;;;;;;;12.00;9.53;;;;;;;11.95;24.20;96066.88;5048125;28;21430;-80
2022/03/21 10:31:05;;;;;;;10.23;9.20;;;;;;;12.02;23.84;96078.31;5057195;28;20529;-79
2022/03/21 10:33:31;;;;;;;16.40;9.20;;;;;;;12.23;23.22;96066.44;5049718;28;20442;-79
2022/03/21 10:36:04;;;;;;;11.60;10.40;;;;;;;12.06;23.20;96063.06;5047828;28;20203;-79
2022/03/21 10:38:35;;;;;;;12.70;10.53;;;;;;;12.10;24.00;96064.34;5060108;28;20436;-80
2022/03/21 10:41:08;;;;;;;9.80;8.30;;;;;;;13.16;22.63;96049.88;5060786;28;20417;-80
2022/03/21 10:43:34;;;;;;;14.63;9.77;;;;;;;12.52;23.12;96050.13;5059211;28;20506;-79
2022/03/21 10:46:01;;;;;;;12.83;11.53;;;;;;;12.51;23.24;96053.72;5062286;28;20417;-79
2022/03/21 10:48:31;;;;;;;11.47;9.90;;;;;;;12.46;23.13;96048.16;5049254;28;20487;-79
2022/03/21 10:51:01;;;;;;;10.43;9.33;;;;;;;12.53;23.00;96043.84;5058623;28;20735;-79
2022/03/21 10:53:38;;;;;;;15.27;10.00;;;;;;;12.32;23.26;96054.13;5058463;28;20449;-80
2022/03/21 10:56:09;;;;;;;13.10;10.60;;;;;;;11.26;24.91;96042.81;5047572;28;20525;-79
2022/03/21 10:58:43;;;;;;;14.47;10.80;;;;;;;11.95;24.22;96045.03;5048024;28;20434;-79
2022/03/21 11:01:26;;;;;;;10.90;8.90;;;;;;;12.47;23.06;96040.09;5047299;28;20418;-79
2022/03/21 11:04:00;;;;;;;12.03;10.13;;;;;;;11.70;23.66;96038.03;5038127;28;20963;-79
2022/03/21 11:06:29;;;;;;;11.00;10.00;;;;;;;11.40;24.17;96042.16;5056320;28;20421;-79
2022/03/21 11:08:55;;;;;;;13.93;11.13;;;;;;;11.48;24.22;96043.97;5056890;28;20463;-79
2022/03/21 11:11:21;;;;;;;15.90;12.03;;;;;;;10.88;25.61;96037.19;5052570;28;20421;-79
2022/03/21 11:13:47;;;;;;;15.60;9.70;;;;;;;11.20;24.47;96028.56;5056784;28;20442;-79
2022/03/21 11:16:17;;;;;;;13.67;10.87;;;;;;;11.70;24.09;96027.53;5060186;28;20465;-79
2022/03/21 11:18:45;;;;;;;15.70;10.97;;;;;;;11.74;24.18;96028.00;5046728;28;20437;-79
2022/03/21 11:21:13;;;;;;;13.03;10.00;;;;;;;12.08;23.57;96019.94;5060355;28;20444;-79
2022/03/21 11:23:39;;;;;;;13.83;9.60;;;;;;;12.14;23.24;96013.19;5046486;28;20441;-79
2022/03/21 11:26:11;;;;;;;15.80;9.23;;;;;;;12.38;23.40;96021.94;5046594;28;20433;-78
2022/03/21 11:29:06;;;;;;;12.43;10.30;;;;;;;12.86;23.27;96012.16;5053504;28;20436;-79
2022/03/21 11:32:06;;;;;;;10.83;9.17;;;;;;;12.50;22.72;96004.81;5062518;28;20418;-79
2022/03/21 11:34:53;;;;;;;11.10;9.57;;;;;;;11.55;23.54;96010.00;5060841;28;20438;-79
2022/03/21 11:37:33;;;;;;;12.20;9.47;;;;;;;11.35;23.72;96010.38;5040296;28;20488;-79
2022/03/21 11:40:36;;;;;;;12.33;8.67;;;;;;;12.24;23.21;96000.69;5060018;28;20476;-79
2022/03/21 11:43:25;;;;;;;14.53;8.67;;;;;;;12.06;22.85;95994.84;5062706;28;20417;-79
2022/03/21 11:45:57;;;;;;;8.27;6.77;;;;;;;11.83;23.11;95989.47;5053349;28;20438;-79
2022/03/21 11:48:23;;;;;;;13.63;9.13;;;;;;;12.28;22.71;95985.41;5046096;28;20469;-79